Time;durP1;ratioP1;P1;durP2;ratioP2;P2;SDS_P1;SDS_P2;PMS_P1;PMS_P2;Temp;Humidity;BMP_temperature;BMP_pressure;BME280_temperature;BME280_humidity;BME280_pressure;Samples;Min_cycle;Max_cycle;Signal;HPM_P1;HPM_P2
2022/08/06 00:03:17;;;;;;;0.85;0.30;;;;;;;15.88;42.43;101407.16;10455910;28;20184;-77
2022/08/06 00:08:39;;;;;;;4.60;0.43;;;;;;;15.84;42.34;101407.00;10424566;28;20313;-78
2022/08/06 00:14:01;;;;;;;1.00;0.43;;;;;;;15.71;42.84;101413.78;10410769;28;20244;-78
2022/08/06 00:19:24;;;;;;;2.33;0.70;;;;;;;15.61;43.76;101417.03;10426601;28;20255;-78
2022/08/06 00:24:46;;;;;;;1.47;0.50;;;;;;;15.59;44.04;101425.09;10409882;28;20200;-78
2022/08/06 00:30:09;;;;;;;0.70;0.50;;;;;;;15.81;43.91;101433.28;10409235;28;20290;-78
2022/08/06 00:35:31;;;;;;;2.30;0.67;;;;;;;15.74;43.75;101438.69;10406362;28;20278;-78
2022/08/06 00:40:54;;;;;;;1.58;0.90;;;;;;;15.11;45.21;101431.94;10410003;28;20205;-78
2022/08/06 00:46:16;;;;;;;3.90;0.77;;;;;;;15.03;44.96;101435.66;10411490;28;20515;-78
2022/08/06 00:51:39;;;;;;;1.37;0.90;;;;;;;15.13;45.10;101438.13;10422984;28;20208;-77
2022/08/06 00:57:05;;;;;;;3.60;0.50;;;;;;;15.12;44.88;101444.97;10408681;28;20267;-77
2022/08/06 01:02:27;;;;;;;4.27;0.70;;;;;;;15.13;45.08;101452.31;10409795;28;20232;-77
2022/08/06 01:07:49;;;;;;;1.47;0.50;;;;;;;15.34;45.31;101456.09;10446595;28;20232;-77
2022/08/06 01:13:11;;;;;;;5.47;0.83;;;;;;;14.99;46.31;101457.38;10452529;28;20293;-78
2022/08/06 01:18:40;;;;;;;1.50;0.87;;;;;;;14.87;46.37;101451.56;10452277;28;20191;-77
2022/08/06 01:24:12;;;;;;;3.10;0.90;;;;;;;14.29;47.75;101464.31;10447575;28;20277;-77
2022/08/06 01:29:37;;;;;;;2.43;0.80;;;;;;;14.75;47.35;101464.44;10437466;28;20224;-78
2022/08/06 01:35:09;;;;;;;0.77;0.50;;;;;;;14.76;46.80;101456.78;10451297;28;20246;-77
2022/08/06 01:40:32;;;;;;;3.17;0.70;;;;;;;14.30;47.73;101463.16;10450692;28;20220;-78
2022/08/06 01:45:57;;;;;;;3.57;0.70;;;;;;;14.24;47.69;101470.16;10431636;28;20643;-78
2022/08/06 01:51:19;;;;;;;2.63;0.73;;;;;;;14.68;47.09;101468.97;10411725;28;20290;-77
2022/08/06 01:56:43;;;;;;;1.60;0.77;;;;;;;14.61;46.96;101463.78;10408544;28;20278;-77
2022/08/06 02:02:08;;;;;;;2.17;0.70;;;;;;;14.50;47.52;101470.97;10398410;28;20188;-78
2022/08/06 02:07:34;;;;;;;2.73;0.70;;;;;;;14.54;47.34;101473.97;10416611;28;20643;-78
2022/08/06 02:12:56;;;;;;;3.87;0.90;;;;;;;14.30;47.72;101474.50;10403008;28;20235;-78
2022/08/06 02:18:20;;;;;;;2.00;0.70;;;;;;;14.48;47.75;101480.97;10402146;28;20208;-78
2022/08/06 02:23:43;;;;;;;3.90;0.80;;;;;;;14.48;47.50;101493.16;10444112;28;20583;-77
2022/08/06 02:29:07;;;;;;;2.83;0.70;;;;;;;14.17;48.59;101493.34;10429801;28;20188;-77
2022/08/06 02:34:29;;;;;;;3.50;0.70;;;;;;;14.05;48.53;101498.84;10430050;28;20261;-78
2022/08/06 02:39:57;;;;;;;2.17;0.80;;;;;;;14.23;48.40;101508.16;10455822;28;20250;-80
2022/08/06 02:45:31;;;;;;;1.90;0.80;;;;;;;14.12;48.29;101502.00;10425697;28;20584;-78
2022/08/06 02:50:55;;;;;;;3.10;0.83;;;;;;;13.89;49.07;101506.94;10443950;28;20195;-78
2022/08/06 02:56:17;;;;;;;1.80;0.90;;;;;;;13.79;49.29;101512.06;10450672;28;20345;-78
2022/08/06 03:01:43;;;;;;;1.47;0.83;;;;;;;13.58;49.56;101507.00;10449316;28;20203;-78
2022/08/06 03:07:08;;;;;;;2.43;1.10;;;;;;;13.74;49.52;101508.22;10458199;28;20227;-78
2022/08/06 03:12:31;;;;;;;2.77;1.00;;;;;;;13.80;49.22;101508.91;10425928;28;20265;-78
2022/08/06 03:17:58;;;;;;;1.43;0.50;;;;;;;13.61;50.10;101526.19;10455309;28;20551;-77
2022/08/06 03:23:22;;;;;;;2.53;0.80;;;;;;;13.67;49.59;101524.88;10443436;28;20265;-78
2022/08/06 03:28:44;;;;;;;2.20;0.93;;;;;;;13.81;49.48;101535.25;10456492;28;20192;-77
2022/08/06 03:34:07;;;;;;;2.40;1.00;;;;;;;13.82;49.13;101534.91;10456953;28;20203;-78
2022/08/06 03:39:30;;;;;;;1.90;1.00;;;;;;;13.76;49.63;101539.06;10439250;28;20266;-77
2022/08/06 03:44:52;;;;;;;3.47;1.30;;;;;;;13.72;49.72;101543.72;10442525;28;20195;-80
2022/08/06 03:50:16;;;;;;;3.57;1.57;;;;;;;13.88;49.03;101538.44;10441463;28;20258;-78
2022/08/06 03:55:39;;;;;;;2.87;1.97;;;;;;;13.69;49.73;101548.03;10440175;28;20246;-78
2022/08/06 04:01:06;;;;;;;3.47;1.70;;;;;;;13.95;48.78;101548.09;10441259;28;20501;-78
2022/08/06 04:06:29;;;;;;;4.67;1.53;;;;;;;14.08;48.68;101552.84;10441744;28;20567;-78
2022/08/06 04:11:52;;;;;;;4.67;1.60;;;;;;;13.99;49.05;101548.31;10441551;28;20261;-78
2022/08/06 04:17:15;;;;;;;5.10;1.90;;;;;;;13.71;49.98;101557.03;10422843;28;20251;-78
2022/08/06 04:22:37;;;;;;;2.70;2.00;;;;;;;12.91;51.74;101569.38;10436798;28;20204;-78
2022/08/06 04:28:00;;;;;;;3.30;2.20;;;;;;;13.57;50.41;101575.31;10439518;28;20250;-77
2022/08/06 04:33:24;;;;;;;3.50;1.93;;;;;;;13.23;51.83;101585.28;10428663;28;20257;-78
2022/08/06 04:38:47;;;;;;;4.60;1.90;;;;;;;13.71;49.99;101576.03;10453439;28;20223;-78
2022/08/06 04:44:10;;;;;;;3.47;1.90;;;;;;;13.57;50.32;101584.63;10452172;28;20588;-78
2022/08/06 04:49:33;;;;;;;4.73;2.03;;;;;;;13.46;50.60;101585.25;10434037;28;20262;-78
2022/08/06 04:54:55;;;;;;;6.20;2.43;;;;;;;13.62;50.39;101583.66;10432779;28;20313;-78
2022/08/06 05:00:18;;;;;;;2.97;1.90;;;;;;;13.80;49.79;101579.75;10438157;28;20249;-77
2022/08/06 05:05:52;;;;;;;3.77;2.20;;;;;;;13.76;50.49;101581.56;10451234;28;20231;-77
2022/08/06 05:11:52;;;;;;;6.27;2.33;;;;;;;13.82;49.50;101604.91;10441749;28;20241;-77
2022/08/06 05:17:16;;;;;;;5.07;2.20;;;;;;;13.70;50.56;101602.69;10407308;28;20592;-81
2022/08/06 05:22:39;;;;;;;5.07;1.70;;;;;;;13.86;49.43;101606.78;10440544;28;20296;-78
2022/08/06 05:28:02;;;;;;;2.67;2.23;;;;;;;14.02;49.74;101613.72;10435808;28;20505;-78
2022/08/06 05:33:36;;;;;;;3.47;2.30;;;;;;;14.08;48.51;101615.22;10426201;28;20293;-87
2022/08/06 05:38:58;;;;;;;3.53;1.87;;;;;;;14.05;48.78;101620.72;10423171;28;20237;-87
2022/08/06 05:44:20;;;;;;;3.60;2.40;;;;;;;14.30;49.20;101622.81;10441645;28;20223;-86
2022/08/06 05:49:47;;;;;;;3.47;1.80;;;;;;;14.53;48.11;101620.66;10417217;28;20211;-79
2022/08/06 05:55:16;;;;;;;5.40;1.80;;;;;;;14.71;47.78;101633.72;10424601;28;20781;-87
2022/08/06 06:00:40;;;;;;;4.40;1.63;;;;;;;14.63;47.33;101634.53;10433278;28;20199;-86
2022/08/06 06:06:03;;;;;;;5.87;2.17;;;;;;;14.38;48.19;101635.31;10422819;28;20224;-79
2022/08/06 06:11:26;;;;;;;5.97;1.90;;;;;;;14.96;46.90;101623.59;10418266;28;20293;-79
2022/08/06 06:17:19;;;;;;;5.60;1.87;;;;;;;14.71;47.28;101639.41;10431485;28;20315;-81
2022/08/06 06:22:48;;;;;;;2.43;1.93;;;;;;;14.17;49.20;101635.13;10403033;28;20433;-81
2022/08/06 06:28:32;;;;;;;8.13;1.40;;;;;;;14.96;47.54;101648.28;10440419;28;20599;-84
2022/08/06 06:34:17;;;;;;;2.53;0.93;;;;;;;15.00;46.89;101646.44;10432924;28;20203;-81
2022/08/06 06:40:13;;;;;;;6.83;1.00;;;;;;;15.40;45.60;101650.75;10425797;28;20246;-82
2022/08/06 06:46:03;;;;;;;3.23;0.67;;;;;;;15.12;46.50;101652.28;10441351;28;20317;-81
2022/08/06 06:51:34;;;;;;;3.27;0.70;;;;;;;15.29;46.23;101652.28;10428214;28;20619;-83
2022/08/06 06:56:57;;;;;;;3.60;0.83;;;;;;;15.38;45.76;101653.09;10430605;28;20570;-83
2022/08/06 07:02:24;;;;;;;1.77;0.57;;;;;;;15.48;46.02;101669.81;10429506;28;20235;-82
2022/08/06 07:07:46;;;;;;;2.33;0.50;;;;;;;15.72;45.56;101674.13;10428791;28;20628;-83
2022/08/06 07:13:10;;;;;;;2.60;0.53;;;;;;;15.62;45.82;101671.66;10438636;28;20255;-83
2022/08/06 07:18:33;;;;;;;1.45;0.40;;;;;;;15.44;45.44;101674.47;10446528;28;20317;-83
2022/08/06 07:23:56;;;;;;;1.90;0.40;;;;;;;16.16;44.48;101679.31;10440376;28;20583;-83
2022/08/06 07:29:19;;;;;;;3.67;0.50;;;;;;;16.01;44.79;101684.75;10444193;28;20207;-81
2022/08/06 07:34:41;;;;;;;2.73;0.50;;;;;;;15.77;44.47;101693.81;10425096;28;20312;-79
2022/08/06 07:40:06;;;;;;;2.28;0.30;;;;;;;15.68;44.97;101690.19;10451425;28;20513;-79
2022/08/06 07:45:31;;;;;;;4.23;0.30;;;;;;;16.52;42.92;101687.38;10408042;28;20288;-80
2022/08/06 07:50:54;;;;;;;2.50;0.33;;;;;;;16.60;43.22;101681.97;10414531;28;20308;-83
2022/08/06 07:56:17;;;;;;;2.07;0.33;;;;;;;16.77;42.11;101679.84;10450345;28;20273;-83
2022/08/06 08:01:39;;;;;;;1.88;0.20;;;;;;;16.17;42.27;101680.97;10429608;28;20235;-83
2022/08/06 08:07:04;;;;;;;2.90;0.30;;;;;;;16.93;41.27;101686.59;10449874;28;20380;-82
2022/08/06 08:12:27;;;;;;;2.20;0.47;;;;;;;17.41;39.58;101690.91;10439866;28;20215;-82
2022/08/06 08:17:49;;;;;;;3.10;0.20;;;;;;;17.63;39.59;101682.00;10423598;28;20251;-86
2022/08/06 08:23:12;;;;;;;1.57;0.20;;;;;;;16.24;40.20;101689.03;10422732;28;20274;-84
2022/08/06 08:28:35;;;;;;;3.03;0.22;;;;;;;17.70;37.38;101689.16;10444127;28;20200;-84
2022/08/06 08:33:57;;;;;;;1.88;0.30;;;;;;;17.89;37.05;101689.44;10447326;28;20665;-83
2022/08/06 08:39:19;;;;;;;4.25;2.25;;;;;;;18.25;35.34;101680.06;10422760;28;20298;-79
2022/08/06 08:44:42;;;;;;;4.10;1.58;;;;;;;17.93;37.27;101682.66;10421507;28;20540;-79
2022/08/06 08:50:05;;;;;;;1.08;0.52;;;;;;;17.93;35.68;101681.84;10434592;28;20282;-79
2022/08/06 08:55:29;;;;;;;3.40;1.05;;;;;;;18.52;34.61;101675.72;10426769;28;20431;-80
2022/08/06 09:00:51;;;;;;;1.20;1.10;;;;;;;18.79;33.47;101680.69;10419071;28;20596;-79
2022/08/06 09:06:13;;;;;;;0.90;0.35;;;;;;;18.60;33.59;101686.19;10436654;28;20297;-79
2022/08/06 09:11:36;;;;;;;1.25;0.70;;;;;;;19.14;33.38;101678.13;10423598;28;20215;-80
2022/08/06 09:16:59;;;;;;;1.98;0.38;;;;;;;18.79;33.13;101685.56;10426696;28;20298;-79
2022/08/06 09:22:21;;;;;;;2.83;0.68;;;;;;;18.55;33.83;101680.72;10408358;28;20227;-80
2022/08/06 09:27:43;;;;;;;2.13;0.60;;;;;;;18.57;32.35;101686.91;10430581;28;20232;-79
2022/08/06 09:33:10;;;;;;;4.38;1.83;;;;;;;18.12;32.76;101687.78;10449577;28;20220;-79
2022/08/06 09:38:48;;;;;;;2.72;0.82;;;;;;;19.11;33.92;101683.75;10440472;28;20274;-82
2022/08/06 09:44:11;;;;;;;1.65;0.55;;;;;;;18.80;31.95;101690.09;10437532;28;20254;-78
2022/08/06 09:49:44;;;;;;;2.43;1.50;;;;;;;19.38;31.58;101677.22;10441364;28;20271;-79
2022/08/06 09:55:06;;;;;;;3.30;1.70;;;;;;;19.27;31.75;101687.47;10422656;28;20232;-80
2022/08/06 10:00:31;;;;;;;3.10;1.58;;;;;;;19.46;31.11;101678.25;10438889;28;20861;-78
2022/08/06 10:06:09;;;;;;;6.25;2.38;;;;;;;19.26;31.73;101697.28;10416197;28;20309;-78
2022/08/06 10:11:36;;;;;;;2.53;0.65;;;;;;;19.30;31.32;101696.16;10450652;28;20227;-79
2022/08/06 10:17:16;;;;;;;1.33;0.73;;;;;;;19.74;30.71;101705.66;10449125;28;20255;-78
2022/08/06 10:22:53;;;;;;;3.30;1.08;;;;;;;19.19;29.72;101708.47;10434433;28;20227;-79
2022/08/06 10:28:16;;;;;;;3.40;0.90;;;;;;;19.46;30.37;101696.22;10446034;28;20228;-80
2022/08/06 10:33:50;;;;;;;1.08;0.40;;;;;;;19.72;30.13;101692.94;10425717;28;20215;-81
2022/08/06 10:39:13;;;;;;;0.47;0.40;;;;;;;20.22;27.89;101680.81;10428008;28;20282;-78
2022/08/06 10:44:36;;;;;;;4.03;0.30;;;;;;;19.62;28.93;101688.56;10448274;28;20231;-80
2022/08/06 10:49:59;;;;;;;1.40;0.20;;;;;;;19.40;28.90;101680.53;10427339;28;20233;-79
2022/08/06 10:55:22;;;;;;;2.95;0.17;;;;;;;18.76;30.90;101687.09;10426520;28;20227;-82
2022/08/06 11:00:44;;;;;;;0.93;0.22;;;;;;;18.81;30.31;101675.44;10424616;28;20204;-79
2022/08/06 11:06:59;;;;;;;0.50;0.20;;;;;;;18.88;31.40;101680.53;10430485;28;20259;-79
2022/08/06 11:12:40;;;;;;;1.02;0.30;;;;;;;20.34;28.66;101666.41;10412020;28;20262;-79
2022/08/06 11:18:07;;;;;;;0.65;0.20;;;;;;;20.66;27.67;101667.19;10444636;28;20251;-86
2022/08/06 11:23:30;;;;;;;0.60;0.22;;;;;;;20.15;28.47;101660.56;10445973;28;20204;-82
2022/08/06 11:28:57;;;;;;;0.95;0.10;;;;;;;19.98;29.47;101663.78;10429577;28;20226;-79
2022/08/06 11:34:20;;;;;;;0.90;0.30;;;;;;;19.60;28.42;101670.09;10429874;28;20200;-79
2022/08/06 11:40:05;;;;;;;2.00;0.47;;;;;;;20.02;27.38;101664.72;10435746;28;20247;-79
2022/08/06 11:45:27;;;;;;;1.73;0.20;;;;;;;19.88;26.59;101656.59;10436333;28;21123;-79
2022/08/06 11:50:49;;;;;;;1.48;0.38;;;;;;;20.29;26.81;101651.56;10451256;28;20219;-79
2022/08/06 11:56:11;;;;;;;2.50;0.20;;;;;;;20.32;27.27;101660.22;10461789;28;20305;-83
2022/08/06 12:01:47;;;;;;;1.15;0.15;;;;;;;20.26;26.78;101661.72;10415626;28;20623;-79
2022/08/06 12:07:28;;;;;;;0.40;0.17;;;;;;;20.34;27.30;101652.09;10447374;28;20267;-83
2022/08/06 12:12:52;;;;;;;1.00;0.10;;;;;;;19.84;27.92;101655.66;10442274;28;20648;-79
2022/08/06 12:18:14;;;;;;;1.80;0.20;;;;;;;20.19;27.41;101654.94;10414974;28;20265;-79
2022/08/06 12:23:36;;;;;;;0.68;0.20;;;;;;;20.76;26.47;101634.25;10432003;28;20223;-79
2022/08/06 12:29:01;;;;;;;0.10;0.10;;;;;;;22.18;23.84;101637.19;10430926;28;20223;-79
2022/08/06 12:34:28;;;;;;;0.43;0.20;;;;;;;21.78;23.92;101629.88;10443590;28;20597;-78
2022/08/06 12:45:32;;;;;;;3.65;0.25;;;;;;;21.54;24.98;101624.50;10425267;28;20227;-84
2022/08/06 12:51:09;;;;;;;0.10;0.10;;;;;;;21.05;24.86;101630.03;10430393;28;20596;-79
2022/08/06 12:56:34;;;;;;;0.43;0.10;;;;;;;21.37;25.14;101624.94;10438621;28;20321;-85
2022/08/06 13:01:57;;;;;;;0.10;0.00;;;;;;;21.88;25.13;101610.34;10441713;28;20279;-78
2022/08/06 13:07:19;;;;;;;0.88;0.10;;;;;;;21.72;24.81;101608.47;10435822;28;20255;-79
2022/08/06 13:12:41;;;;;;;1.70;0.10;;;;;;;22.11;25.06;101591.97;10445487;28;20590;-79
2022/08/06 13:18:04;;;;;;;1.52;0.10;;;;;;;22.32;22.93;101585.72;10463399;28;20324;-79
2022/08/06 13:23:35;;;;;;;0.57;0.10;;;;;;;22.14;23.16;101581.72;10420405;28;20245;-80
2022/08/06 13:29:14;;;;;;;1.00;0.00;;;;;;;22.04;23.00;101586.09;10426816;28;20254;-81
2022/08/06 13:34:56;;;;;;;1.83;0.10;;;;;;;22.80;24.17;101578.22;10438425;28;20309;-81
2022/08/06 13:40:19;;;;;;;0.77;0.10;;;;;;;22.61;23.13;101574.69;10441749;28;20251;-81
2022/08/06 13:45:41;;;;;;;0.60;0.10;;;;;;;22.11;24.57;101579.66;10421972;28;20619;-81
2022/08/06 13:51:04;;;;;;;3.28;0.20;;;;;;;21.74;24.86;101579.38;10425220;28;20229;-84
2022/08/06 13:56:26;;;;;;;1.02;0.10;;;;;;;21.33;25.31;101573.28;10421649;28;20251;-83
2022/08/06 14:01:50;;;;;;;0.77;0.10;;;;;;;21.50;24.03;101577.69;10419849;28;20234;-82
2022/08/06 14:07:15;;;;;;;1.60;1.25;;;;;;;22.17;25.41;101561.69;10399762;28;20293;-76
2022/08/06 14:12:38;;;;;;;1.15;0.20;;;;;;;22.15;23.61;101564.09;10423350;28;20247;-82
2022/08/06 14:18:01;;;;;;;3.63;0.35;;;;;;;20.99;24.37;101580.75;10438159;28;20297;-82
2022/08/06 14:23:23;;;;;;;1.55;0.28;;;;;;;21.23;24.45;101573.88;10417356;28;20273;-81
2022/08/06 14:28:48;;;;;;;0.20;0.10;;;;;;;21.34;24.57;101574.91;10423355;28;20189;-81
2022/08/06 14:34:12;;;;;;;1.08;0.03;;;;;;;21.28;25.42;101564.97;10434665;28;20208;-82
2022/08/06 14:39:35;;;;;;;0.30;0.10;;;;;;;21.62;24.93;101551.69;10419586;28;20740;-83
2022/08/06 14:44:59;;;;;;;3.67;0.30;;;;;;;21.88;25.55;101553.78;10425968;28;20207;-83
2022/08/06 14:50:21;;;;;;;0.80;0.20;;;;;;;20.88;27.08;101562.50;10431808;28;20241;-84
2022/08/06 14:55:44;;;;;;;3.50;0.25;;;;;;;20.79;27.17;101554.16;10436148;28;20224;-83
2022/08/06 15:01:07;;;;;;;1.50;0.10;;;;;;;20.97;26.41;101548.75;10419976;28;20256;-82
2022/08/06 15:06:29;;;;;;;0.30;0.10;;;;;;;22.31;25.00;101531.53;10438932;28;20284;-82
2022/08/06 15:11:52;;;;;;;0.98;0.20;;;;;;;21.92;24.59;101523.09;10433972;28;20220;-82
2022/08/06 15:17:20;;;;;;;1.08;0.35;;;;;;;22.02;23.93;101515.91;10428334;28;20313;-82
2022/08/06 15:22:43;;;;;;;2.35;0.30;;;;;;;21.51;24.56;101516.25;10437743;28;20285;-81
2022/08/06 15:28:06;;;;;;;0.57;0.38;;;;;;;22.34;23.34;101497.13;10441122;28;20223;-81
2022/08/06 15:33:29;;;;;;;1.13;0.30;;;;;;;22.79;23.17;101501.00;10442588;28;20195;-81
2022/08/06 15:38:57;;;;;;;0.65;0.15;;;;;;;21.72;23.87;101508.03;10423459;28;20255;-82
2022/08/06 15:44:19;;;;;;;1.08;0.50;;;;;;;21.76;25.90;101511.75;10436920;28;20645;-83
2022/08/06 15:49:43;;;;;;;0.60;0.30;;;;;;;21.81;23.70;101508.59;10474113;28;20184;-83
2022/08/06 15:55:08;;;;;;;1.65;0.30;;;;;;;21.13;25.13;101495.03;10444043;28;20595;-83
2022/08/06 16:00:34;;;;;;;3.00;0.30;;;;;;;22.24;24.31;101486.31;10455188;28;20204;-83
2022/08/06 16:05:57;;;;;;;0.98;0.20;;;;;;;21.98;23.93;101483.47;10424479;28;20223;-83
2022/08/06 16:11:19;;;;;;;4.05;2.17;;;;;;;22.84;23.14;101492.03;10447755;28;20191;-80
2022/08/06 16:16:41;;;;;;;1.85;0.20;;;;;;;22.03;24.02;101498.28;10451056;28;20321;-83
2022/08/06 16:22:04;;;;;;;1.30;0.20;;;;;;;21.94;24.44;101499.75;10438680;28;20200;-85
2022/08/06 16:27:28;;;;;;;2.58;0.10;;;;;;;22.07;24.70;101492.63;10430343;28;20228;-83
2022/08/06 16:32:51;;;;;;;1.13;0.30;;;;;;;21.94;24.40;101491.97;10449294;28;20245;-82
2022/08/06 16:38:15;;;;;;;0.15;0.10;;;;;;;22.28;22.64;101487.16;10459128;28;20693;-82
2022/08/06 16:43:37;;;;;;;2.35;0.13;;;;;;;22.35;23.51;101484.41;10427435;28;20227;-83
2022/08/06 17:02:38;;;;;;;1.63;0.47;;;;;;;21.72;23.89;101481.38;10446912;28;20602;-83
2022/08/06 17:08:01;;;;;;;1.27;0.10;;;;;;;22.09;23.04;101475.81;10937178;22;20664;-83
2022/08/06 17:13:23;;;;;;;3.63;1.38;;;;;;;22.68;23.22;101477.88;10459941;28;20230;-82
2022/08/06 17:18:45;;;;;;;0.75;0.20;;;;;;;21.88;23.88;101467.66;10468204;28;20644;-83
2022/08/06 17:24:07;;;;;;;0.63;0.10;;;;;;;22.18;23.17;101467.75;10480306;28;20597;-84
2022/08/06 17:29:29;;;;;;;2.58;0.30;;;;;;;22.06;23.79;101465.13;10481622;28;20199;-86
2022/08/06 17:34:51;;;;;;;0.82;0.20;;;;;;;21.84;24.94;101466.81;10479033;28;20491;-82
2022/08/06 17:40:21;;;;;;;2.15;0.60;;;;;;;21.72;24.24;101475.63;10474554;28;20624;-82
2022/08/06 17:45:43;;;;;;;51.35;30.00;;;;;;;21.76;23.97;101465.03;10464591;28;20191;-86
2022/08/06 17:51:06;;;;;;;4.75;3.13;;;;;;;21.65;24.57;101475.50;10475695;28;20646;-86
2022/08/06 17:56:28;;;;;;;0.73;0.50;;;;;;;21.40;24.96;101477.94;10480440;28;20190;-87
2022/08/06 18:01:50;;;;;;;0.52;0.30;;;;;;;20.97;26.34;101473.41;10482060;28;20260;-82
2022/08/06 18:07:14;;;;;;;1.10;0.20;;;;;;;20.74;26.18;101488.50;10474141;28;20227;-81
2022/08/06 18:12:37;;;;;;;5.60;0.25;;;;;;;20.82;27.44;101478.06;10457014;28;20198;-88
2022/08/06 18:18:01;;;;;;;2.78;0.32;;;;;;;20.74;27.51;101484.81;10476434;28;20803;-88
2022/08/06 18:23:23;;;;;;;1.70;0.20;;;;;;;20.57;27.81;101488.13;10478605;28;20708;-82
2022/08/06 18:28:47;;;;;;;0.63;0.28;;;;;;;20.66;27.59;101491.59;10453078;28;20620;-88
2022/08/06 18:34:10;;;;;;;2.75;0.50;;;;;;;20.38;28.06;101492.66;10456196;28;20204;-87
2022/08/06 18:39:32;;;;;;;1.75;0.47;;;;;;;20.32;28.47;101494.13;10461177;28;20219;-82
2022/08/06 18:44:54;;;;;;;1.13;0.20;;;;;;;20.64;27.80;101488.28;10480582;28;20208;-86
2022/08/06 18:50:17;;;;;;;0.45;0.22;;;;;;;20.24;28.33;101500.91;10468254;28;20657;-81
2022/08/06 18:55:39;;;;;;;1.85;0.75;;;;;;;20.44;27.88;101502.59;10480846;28;20187;-81
2022/08/06 19:01:01;;;;;;;2.90;1.10;;;;;;;20.40;28.05;101509.47;10482715;28;20215;-81
2022/08/06 19:06:23;;;;;;;1.10;0.43;;;;;;;20.28;28.95;101516.16;10455003;28;20298;-80
2022/08/06 19:11:45;;;;;;;1.33;0.47;;;;;;;20.18;29.45;101522.44;10463851;28;20192;-81
2022/08/06 19:17:07;;;;;;;1.48;0.45;;;;;;;19.93;29.80;101521.81;10405549;28;20212;-80
2022/08/06 19:22:29;;;;;;;1.80;0.50;;;;;;;19.72;30.51;101527.84;10423699;28;20215;-80
2022/08/06 19:27:51;;;;;;;1.10;0.32;;;;;;;19.74;30.67;101536.06;10451904;28;20481;-81
2022/08/06 19:33:13;;;;;;;1.85;0.45;;;;;;;19.66;30.93;101542.78;10438773;28;20276;-80
2022/08/06 19:38:37;;;;;;;2.05;0.57;;;;;;;19.42;31.40;101540.06;10462960;28;20258;-81
2022/08/06 19:44:00;;;;;;;2.47;0.50;;;;;;;19.09;32.11;101537.53;10474679;28;20249;-81
2022/08/06 19:49:22;;;;;;;1.95;0.60;;;;;;;19.00;32.68;101543.41;10472963;28;20196;-82
2022/08/06 19:54:44;;;;;;;3.28;0.50;;;;;;;18.74;32.84;101543.00;10435100;28;20276;-81
2022/08/06 20:00:07;;;;;;;1.10;0.50;;;;;;;19.01;33.63;101548.72;10447770;28;20216;-87
2022/08/06 20:05:29;;;;;;;3.15;0.68;;;;;;;18.80;33.64;101548.09;10436295;28;20211;-82
2022/08/06 20:10:51;;;;;;;1.58;0.50;;;;;;;18.74;33.87;101558.13;10454245;28;20483;-81
2022/08/06 20:16:13;;;;;;;2.10;0.80;;;;;;;18.78;34.06;101559.03;10450951;28;20245;-81
2022/08/06 20:21:35;;;;;;;2.40;0.45;;;;;;;18.75;34.33;101558.94;10442559;28;20255;-82
2022/08/06 20:26:57;;;;;;;1.23;0.50;;;;;;;18.61;34.55;101567.94;10442968;28;20729;-88
2022/08/06 20:32:19;;;;;;;1.23;0.50;;;;;;;18.41;34.72;101568.91;10445697;28;20278;-86
2022/08/06 20:37:41;;;;;;;0.75;0.50;;;;;;;18.30;35.42;101562.88;10422374;28;20239;-84
2022/08/06 20:43:05;;;;;;;1.85;0.57;;;;;;;18.41;35.46;101569.75;10437377;28;20231;-79
2022/08/06 20:48:29;;;;;;;4.20;1.80;;;;;;;18.17;35.88;101570.56;10427063;28;20289;-86
2022/08/06 20:53:52;;;;;;;2.72;0.80;;;;;;;18.29;35.61;101570.59;10446018;28;20240;-86
2022/08/06 20:59:14;;;;;;;1.43;0.70;;;;;;;18.20;36.04;101567.00;10440471;28;20255;-85
2022/08/06 21:04:36;;;;;;;3.67;0.70;;;;;;;18.09;35.81;101568.69;10443456;28;20192;-80
2022/08/06 21:09:58;;;;;;;2.38;0.80;;;;;;;18.03;36.34;101575.81;10425378;28;20224;-79
2022/08/06 21:15:20;;;;;;;1.08;0.82;;;;;;;17.80;36.97;101571.78;10425977;28;20231;-80
2022/08/06 21:20:44;;;;;;;1.20;0.77;;;;;;;17.95;36.57;101571.06;10417351;28;20252;-80
2022/08/06 21:26:06;;;;;;;1.52;0.60;;;;;;;17.80;36.57;101572.59;10392303;28;20279;-81
2022/08/06 21:31:28;;;;;;;2.25;0.82;;;;;;;17.80;36.94;101578.31;10430354;28;20616;-79
2022/08/06 21:36:51;;;;;;;4.10;1.00;;;;;;;17.69;36.80;101579.97;10450182;28;20250;-81
2022/08/06 21:42:13;;;;;;;1.38;1.00;;;;;;;17.52;37.73;101572.41;10417698;28;20255;-84
2022/08/06 21:47:35;;;;;;;5.38;1.40;;;;;;;17.34;38.06;101582.34;10438502;28;20227;-83
2022/08/06 21:52:57;;;;;;;2.50;1.00;;;;;;;17.48;36.87;101580.00;10433469;28;20235;-79
2022/08/06 21:58:19;;;;;;;1.30;1.20;;;;;;;17.37;37.76;101580.81;10421987;28;20266;-81
2022/08/06 22:03:42;;;;;;;3.63;1.55;;;;;;;17.51;37.30;101575.63;10419122;28;20288;-84
2022/08/06 22:09:04;;;;;;;2.58;1.63;;;;;;;17.53;37.34;101579.78;10447073;28;20636;-79
2022/08/06 22:14:26;;;;;;;2.83;1.75;;;;;;;17.51;37.04;101569.91;10417902;28;20277;-79
2022/08/06 22:19:48;;;;;;;4.53;2.10;;;;;;;17.59;36.34;101566.94;10430122;28;20247;-79
2022/08/06 22:25:10;;;;;;;3.75;1.83;;;;;;;17.43;36.94;101568.00;10434093;28;20288;-79
2022/08/06 22:30:33;;;;;;;2.33;1.80;;;;;;;17.32;37.60;101561.09;10418905;28;20314;-79
2022/08/06 22:35:55;;;;;;;4.07;1.73;;;;;;;17.37;37.36;101561.69;10434967;28;20605;-79
2022/08/06 22:41:17;;;;;;;2.17;1.33;;;;;;;17.30;37.57;101557.75;10412545;28;20258;-79
2022/08/06 22:46:39;;;;;;;1.15;0.88;;;;;;;17.00;37.74;101559.91;10422582;28;20227;-79
2022/08/06 22:52:03;;;;;;;2.03;1.20;;;;;;;17.14;37.99;101557.59;10434028;28;20651;-79
2022/08/06 22:57:26;;;;;;;2.53;1.20;;;;;;;17.03;39.13;101556.38;10416156;28;20244;-79
2022/08/06 23:02:49;;;;;;;3.63;1.42;;;;;;;16.79;39.21;101548.53;10419755;28;20622;-79
2022/08/06 23:08:11;;;;;;;2.35;1.60;;;;;;;16.59;39.39;101555.88;10439387;28;20266;-79
2022/08/06 23:13:33;;;;;;;2.38;1.52;;;;;;;16.46;40.50;101551.31;10405902;28;20204;-83
2022/08/06 23:18:55;;;;;;;4.63;1.53;;;;;;;16.44;40.27;101553.66;10453025;28;20243;-80
2022/08/06 23:24:18;;;;;;;9.17;2.10;;;;;;;16.27;40.40;101550.97;10445561;28;20232;-80
2022/08/06 23:29:40;;;;;;;2.27;1.90;;;;;;;16.38;40.88;101543.69;10449335;28;20210;-80
2022/08/06 23:35:03;;;;;;;5.33;2.00;;;;;;;16.35;40.66;101547.19;10435255;28;20668;-80
2022/08/06 23:40:25;;;;;;;4.30;1.97;;;;;;;15.76;41.91;101555.72;10442123;28;20251;-79
2022/08/06 23:45:47;;;;;;;2.93;2.00;;;;;;;16.12;41.15;101550.34;10429689;28;20600;-84
2022/08/06 23:51:13;;;;;;;2.83;1.80;;;;;;;16.26;41.24;101550.13;10424804;28;20281;-81
2022/08/06 23:56:35;;;;;;;4.27;1.83;;;;;;;15.97;41.83;101550.94;10439596;28;20227;-86
